Time;durP1;ratioP1;P1;durP2;ratioP2;P2;SDS_P1;SDS_P2;PMS_P1;PMS_P2;Temp;Humidity;BMP_temperature;BMP_pressure;BME280_temperature;BME280_humidity;BME280_pressure;Samples;Min_cycle;Max_cycle;Signal;HPM_P1;HPM_P2
2021/08/31 00:01:35;;;;;;;;;;;16.70;99.90;;;;;;5094146;28;20321;-77
2021/08/31 00:04:00;;;;;;;;;;;16.70;99.90;;;;;;5066281;28;19909;-78
2021/08/31 00:06:26;;;;;;;;;;;16.60;99.90;;;;;;5073646;28;19965;-80
2021/08/31 00:08:51;;;;;;;;;;;16.70;99.90;;;;;;5094917;28;19920;-80
2021/08/31 00:11:17;;;;;;;;;;;16.70;99.90;;;;;;5094346;28;19908;-76
2021/08/31 00:13:43;;;;;;;;;;;16.60;99.90;;;;;;5076227;28;20431;-83
2021/08/31 00:16:08;;;;;;;;;;;16.70;99.90;;;;;;5070299;28;19956;-84
2021/08/31 00:18:34;;;;;;;;;;;16.70;99.90;;;;;;5094829;28;19965;-84
2021/08/31 00:20:59;;;;;;;;;;;16.70;99.90;;;;;;5093196;28;19999;-80
2021/08/31 00:23:25;;;;;;;;;;;16.70;99.90;;;;;;5094808;28;20303;-82
2021/08/31 00:25:53;;;;;;;;;;;16.70;99.90;;;;;;5091610;28;20319;-81
2021/08/31 00:28:19;;;;;;;;;;;16.70;99.90;;;;;;5093934;28;19916;-81
2021/08/31 00:30:44;;;;;;;;;;;16.80;99.90;;;;;;5076708;28;20047;-84
2021/08/31 00:33:10;;;;;;;;;;;16.80;99.90;;;;;;5095123;28;19965;-79
2021/08/31 00:35:36;;;;;;;;;;;16.80;99.90;;;;;;5075062;28;19922;-81
2021/08/31 00:38:01;;;;;;;;;;;16.80;99.90;;;;;;5090307;28;19978;-84
2021/08/31 00:40:27;;;;;;;;;;;16.80;99.90;;;;;;5087276;28;20342;-87
2021/08/31 00:42:52;;;;;;;;;;;16.70;99.90;;;;;;5075683;28;19930;-83
2021/08/31 00:45:18;;;;;;;;;;;16.60;99.90;;;;;;5093002;28;19938;-86
2021/08/31 00:47:44;;;;;;;;;;;16.60;99.90;;;;;;5094396;28;20303;-75
2021/08/31 00:50:10;;;;;;;;;;;16.40;99.90;;;;;;5091145;28;19912;-75
2021/08/31 00:52:37;;;;;;;;;;;16.40;99.90;;;;;;5071878;28;19999;-84
2021/08/31 00:55:03;;;;;;;;;;;16.30;99.90;;;;;;5075695;28;19912;-82
2021/08/31 00:57:29;;;;;;;;;;;16.20;99.90;;;;;;5092951;28;20192;-74
2021/08/31 00:59:54;;;;;;;;;;;16.10;99.90;;;;;;5093656;28;19912;-78
2021/08/31 01:02:20;;;;;;;;;;;16.00;99.90;;;;;;5094138;28;19919;-80
2021/08/31 01:04:45;;;;;;;;;;;16.00;99.90;;;;;;5094136;28;20328;-82
2021/08/31 01:07:11;;;;;;;;;;;16.00;99.90;;;;;;5094655;28;20066;-75
2021/08/31 01:09:37;;;;;;;;;;;16.10;99.90;;;;;;5073453;28;19916;-76
2021/08/31 01:12:03;;;;;;;;;;;16.00;99.90;;;;;;5091690;28;19912;-76
2021/08/31 01:14:29;;;;;;;;;;;16.00;99.90;;;;;;5092855;28;19912;-83
2021/08/31 01:16:55;;;;;;;;;;;16.00;99.90;;;;;;5091511;28;19912;-81
2021/08/31 01:19:30;;;;;;;;;;;16.00;99.90;;;;;;5094146;28;19962;-77
2021/08/31 01:21:57;;;;;;;;;;;16.00;99.90;;;;;;5076787;28;19922;-83
2021/08/31 01:24:23;;;;;;;;;;;15.80;99.90;;;;;;5093651;28;20052;-78
2021/08/31 01:26:49;;;;;;;;;;;15.80;99.90;;;;;;5097896;28;20328;-77
2021/08/31 01:29:14;;;;;;;;;;;15.80;99.90;;;;;;5079079;28;19951;-82
2021/08/31 01:31:40;;;;;;;;;;;15.80;99.90;;;;;;5098374;28;19954;-83
2021/08/31 01:34:06;;;;;;;;;;;15.70;99.90;;;;;;5096765;28;19936;-75
2021/08/31 01:36:31;;;;;;;;;;;15.70;99.90;;;;;;5062130;28;20315;-83
2021/08/31 01:38:57;;;;;;;;;;;15.70;99.90;;;;;;5096305;28;20253;-76
2021/08/31 01:41:23;;;;;;;;;;;15.70;99.90;;;;;;5076529;28;20007;-84
2021/08/31 01:43:49;;;;;;;;;;;15.70;99.90;;;;;;5090018;28;20241;-84
2021/08/31 01:46:15;;;;;;;;;;;15.70;99.90;;;;;;5097586;28;19912;-78
2021/08/31 01:48:41;;;;;;;;;;;15.60;99.90;;;;;;5077115;28;19919;-80
2021/08/31 01:51:07;;;;;;;;;;;15.40;99.90;;;;;;5097681;28;20376;-82
2021/08/31 01:53:35;;;;;;;;;;;15.40;99.90;;;;;;5079081;28;20196;-83
2021/08/31 01:56:00;;;;;;;;;;;15.30;99.90;;;;;;5096973;28;19908;-83
2021/08/31 01:58:26;;;;;;;;;;;15.30;99.90;;;;;;5079300;28;19922;-83
2021/08/31 02:00:52;;;;;;;;;;;15.20;99.90;;;;;;5097239;28;20303;-75
2021/08/31 02:03:17;;;;;;;;;;;15.20;99.90;;;;;;5068238;28;19913;-79
2021/08/31 02:05:43;;;;;;;;;;;15.20;99.90;;;;;;5096009;28;19916;-75
2021/08/31 02:08:09;;;;;;;;;;;15.10;99.90;;;;;;5096281;28;19924;-84
2021/08/31 02:10:34;;;;;;;;;;;15.00;99.90;;;;;;5078506;28;20015;-77
2021/08/31 02:13:00;;;;;;;;;;;15.00;99.90;;;;;;5072852;28;19922;-82
2021/08/31 02:15:26;;;;;;;;;;;15.00;99.90;;;;;;5077934;28;19912;-75
2021/08/31 02:17:51;;;;;;;;;;;15.00;99.90;;;;;;5096062;28;20011;-81
2021/08/31 02:20:17;;;;;;;;;;;15.00;99.90;;;;;;5078947;28;19908;-76
2021/08/31 02:22:42;;;;;;;;;;;15.00;99.90;;;;;;5091488;28;19916;-82
2021/08/31 02:25:09;;;;;;;;;;;14.90;99.90;;;;;;5095085;28;19965;-82
2021/08/31 02:27:34;;;;;;;;;;;14.90;99.90;;;;;;5096295;28;20010;-83
2021/08/31 02:30:00;;;;;;;;;;;14.80;99.90;;;;;;5097252;28;19988;-83
2021/08/31 02:32:26;;;;;;;;;;;14.80;99.90;;;;;;5091599;28;20330;-84
2021/08/31 02:34:51;;;;;;;;;;;14.80;99.90;;;;;;5077953;28;20308;-81
2021/08/31 02:37:17;;;;;;;;;;;14.90;99.90;;;;;;5092356;28;19912;-75
2021/08/31 02:39:42;;;;;;;;;;;14.80;99.90;;;;;;5095621;28;20211;-76
2021/08/31 02:42:08;;;;;;;;;;;14.80;99.90;;;;;;5090345;28;19914;-82
2021/08/31 02:44:34;;;;;;;;;;;14.90;99.90;;;;;;5095508;28;20034;-81
2021/08/31 02:46:59;;;;;;;;;;;15.00;99.90;;;;;;5091417;28;19961;-81
2021/08/31 02:49:25;;;;;;;;;;;15.00;99.90;;;;;;5091990;28;19958;-81
2021/08/31 02:51:51;;;;;;;;;;;15.00;99.90;;;;;;5072965;28;20015;-79
2021/08/31 02:54:17;;;;;;;;;;;14.90;99.90;;;;;;5087742;28;19959;-76
2021/08/31 02:56:42;;;;;;;;;;;14.90;99.90;;;;;;5071450;28;19947;-82
2021/08/31 02:59:08;;;;;;;;;;;14.90;99.90;;;;;;5087059;28;19919;-82
2021/08/31 03:01:34;;;;;;;;;;;14.90;99.90;;;;;;5087203;28;19923;-78
2021/08/31 03:04:01;;;;;;;;;;;14.80;99.90;;;;;;5070619;28;19995;-82
2021/08/31 03:06:27;;;;;;;;;;;14.80;99.90;;;;;;5090057;28;19916;-80
2021/08/31 03:08:53;;;;;;;;;;;14.80;99.90;;;;;;5069423;28;19965;-81
2021/08/31 03:11:18;;;;;;;;;;;14.80;99.90;;;;;;5069844;28;19912;-82
2021/08/31 03:13:44;;;;;;;;;;;14.90;99.90;;;;;;5090421;28;20011;-84
2021/08/31 03:16:09;;;;;;;;;;;14.90;99.90;;;;;;5090801;28;19917;-76
2021/08/31 03:18:35;;;;;;;;;;;15.00;99.90;;;;;;5093596;28;19916;-83
2021/08/31 03:21:00;;;;;;;;;;;15.10;99.90;;;;;;5084417;28;19916;-81
2021/08/31 03:23:26;;;;;;;;;;;15.10;99.90;;;;;;5092919;28;19919;-84
2021/08/31 03:25:52;;;;;;;;;;;15.20;99.90;;;;;;5095720;28;19999;-82
2021/08/31 03:28:17;;;;;;;;;;;15.20;99.90;;;;;;5094710;28;20465;-81
2021/08/31 03:30:43;;;;;;;;;;;15.30;99.90;;;;;;5088364;28;19909;-75
2021/08/31 03:33:09;;;;;;;;;;;15.30;99.90;;;;;;5084453;28;19909;-77
2021/08/31 03:35:34;;;;;;;;;;;15.20;99.90;;;;;;5094833;28;20363;-76
2021/08/31 03:38:00;;;;;;;;;;;15.20;99.90;;;;;;5095291;28;19918;-81
2021/08/31 03:40:25;;;;;;;;;;;15.30;99.90;;;;;;5092198;28;19919;-79
2021/08/31 03:42:51;;;;;;;;;;;15.20;99.90;;;;;;5093090;28;19942;-78
2021/08/31 03:45:17;;;;;;;;;;;15.30;99.90;;;;;;5076562;28;20307;-75
2021/08/31 03:47:43;;;;;;;;;;;15.20;99.90;;;;;;5095483;28;20322;-78
2021/08/31 03:50:09;;;;;;;;;;;15.10;99.90;;;;;;5065459;28;19908;-86
2021/08/31 03:52:35;;;;;;;;;;;15.10;99.90;;;;;;5093176;28;19912;-80
2021/08/31 03:55:00;;;;;;;;;;;15.10;99.90;;;;;;5084639;28;20219;-75
2021/08/31 03:57:27;;;;;;;;;;;15.10;99.90;;;;;;5090743;28;20314;-82
2021/08/31 03:59:52;;;;;;;;;;;15.10;99.90;;;;;;5076402;28;19923;-82
2021/08/31 04:02:21;;;;;;;;;;;15.10;99.90;;;;;;5076181;28;19912;-84
2021/08/31 04:04:46;;;;;;;;;;;15.10;99.90;;;;;;5070358;28;19949;-80
2021/08/31 04:07:12;;;;;;;;;;;15.10;99.90;;;;;;5077270;28;19922;-76
2021/08/31 04:09:38;;;;;;;;;;;15.10;99.90;;;;;;5094496;28;19978;-80
2021/08/31 04:12:03;;;;;;;;;;;15.00;99.90;;;;;;5092327;28;19934;-75
2021/08/31 04:14:29;;;;;;;;;;;14.90;99.90;;;;;;5094602;28;19908;-75
2021/08/31 04:16:54;;;;;;;;;;;14.80;99.90;;;;;;5074536;28;20209;-82
2021/08/31 04:19:20;;;;;;;;;;;14.80;99.90;;;;;;5094965;28;20304;-80
2021/08/31 04:21:46;;;;;;;;;;;14.80;99.90;;;;;;5094708;28;19916;-83
2021/08/31 04:24:11;;;;;;;;;;;14.80;99.90;;;;;;5094643;28;19904;-80
2021/08/31 04:26:37;;;;;;;;;;;14.70;99.90;;;;;;5076534;28;19923;-76
2021/08/31 04:29:03;;;;;;;;;;;14.70;99.90;;;;;;5078257;28;19928;-78
2021/08/31 04:31:29;;;;;;;;;;;14.60;99.90;;;;;;5086378;28;20226;-79
2021/08/31 04:33:54;;;;;;;;;;;14.60;99.90;;;;;;5093304;28;19916;-83
2021/08/31 04:36:20;;;;;;;;;;;14.50;99.90;;;;;;5092885;28;19916;-77
2021/08/31 04:38:47;;;;;;;;;;;14.40;99.90;;;;;;5074534;28;19927;-84
2021/08/31 04:41:13;;;;;;;;;;;14.40;99.90;;;;;;5074906;28;20502;-76
2021/08/31 04:43:38;;;;;;;;;;;14.30;99.90;;;;;;5076631;28;19912;-78
2021/08/31 04:46:04;;;;;;;;;;;14.20;99.90;;;;;;5076577;28;20204;-85
2021/08/31 04:48:30;;;;;;;;;;;14.20;99.90;;;;;;5073870;28;19924;-83
2021/08/31 04:50:59;;;;;;;;;;;14.20;99.90;;;;;;5076374;28;19915;-83
2021/08/31 04:53:25;;;;;;;;;;;14.10;99.90;;;;;;5094786;28;19916;-82
2021/08/31 04:55:50;;;;;;;;;;;14.10;99.90;;;;;;5072292;28;19919;-79
2021/08/31 04:58:16;;;;;;;;;;;14.10;99.90;;;;;;5084027;28;19912;-82
2021/08/31 05:00:46;;;;;;;;;;;14.10;99.90;;;;;;5091289;28;19916;-81
2021/08/31 05:03:12;;;;;;;;;;;14.10;99.90;;;;;;5097295;28;19969;-81
2021/08/31 05:05:38;;;;;;;;;;;14.10;99.90;;;;;;5092104;28;19916;-82
2021/08/31 05:08:04;;;;;;;;;;;14.10;99.90;;;;;;5097032;28;20187;-81
2021/08/31 05:10:29;;;;;;;;;;;14.10;99.90;;;;;;5075446;28;19916;-82
2021/08/31 05:12:58;;;;;;;;;;;14.10;99.90;;;;;;5094068;28;20263;-78
2021/08/31 05:15:23;;;;;;;;;;;14.10;99.90;;;;;;5094692;28;20219;-81
2021/08/31 05:17:49;;;;;;;;;;;14.20;99.90;;;;;;5075125;28;19916;-81
2021/08/31 05:20:15;;;;;;;;;;;14.20;99.90;;;;;;5075320;28;19923;-82
2021/08/31 05:22:40;;;;;;;;;;;14.30;99.90;;;;;;5096134;28;19912;-81
2021/08/31 05:25:06;;;;;;;;;;;14.30;99.90;;;;;;5094923;28;19915;-79
2021/08/31 05:27:32;;;;;;;;;;;14.30;99.90;;;;;;5095671;28;19923;-80
2021/08/31 05:29:57;;;;;;;;;;;14.30;99.90;;;;;;5096339;28;19919;-81
2021/08/31 05:32:23;;;;;;;;;;;14.30;99.90;;;;;;5095607;28;19919;-80
2021/08/31 05:34:49;;;;;;;;;;;14.30;99.90;;;;;;5074352;28;20348;-81
2021/08/31 05:37:14;;;;;;;;;;;14.40;99.90;;;;;;5074556;28;19924;-77
2021/08/31 05:39:40;;;;;;;;;;;14.40;99.90;;;;;;5090339;28;20275;-81
2021/08/31 05:42:07;;;;;;;;;;;14.40;99.90;;;;;;5090596;28;19912;-80
2021/08/31 05:44:33;;;;;;;;;;;14.50;99.90;;;;;;5096097;28;19912;-81
2021/08/31 05:46:58;;;;;;;;;;;14.40;99.90;;;;;;5096803;28;20242;-81
2021/08/31 05:49:26;;;;;;;;;;;14.60;99.90;;;;;;5078464;28;19916;-83
2021/08/31 05:51:54;;;;;;;;;;;14.60;99.90;;;;;;5084485;28;19916;-81
2021/08/31 05:54:25;;;;;;;;;;;14.70;99.90;;;;;;5099887;28;19920;-80
2021/08/31 05:56:51;;;;;;;;;;;14.80;99.90;;;;;;5077483;28;20299;-76
2021/08/31 05:59:16;;;;;;;;;;;14.90;99.90;;;;;;5086602;28;19931;-76
2021/08/31 06:01:44;;;;;;;;;;;14.90;99.90;;;;;;5073377;28;19916;-81
2021/08/31 06:04:10;;;;;;;;;;;15.00;99.90;;;;;;5056077;28;20004;-81
2021/08/31 06:06:35;;;;;;;;;;;15.10;99.90;;;;;;5074712;28;19981;-81
2021/08/31 06:09:01;;;;;;;;;;;15.10;99.90;;;;;;5057894;28;20311;-75
2021/08/31 06:11:29;;;;;;;;;;;15.20;99.90;;;;;;5062394;28;20264;-78
2021/08/31 06:13:55;;;;;;;;;;;15.30;99.90;;;;;;5058271;28;19966;-81
2021/08/31 06:16:20;;;;;;;;;;;15.30;99.90;;;;;;5067512;28;19944;-77
2021/08/31 06:18:46;;;;;;;;;;;15.40;99.90;;;;;;5072586;28;19915;-80
2021/08/31 06:21:11;;;;;;;;;;;15.40;99.90;;;;;;5058081;28;20355;-81
2021/08/31 06:23:37;;;;;;;;;;;15.40;99.90;;;;;;5065060;28;19912;-78
2021/08/31 06:26:02;;;;;;;;;;;15.40;99.90;;;;;;5076702;28;19909;-83
2021/08/31 06:28:28;;;;;;;;;;;15.50;99.90;;;;;;5076475;28;19917;-75
2021/08/31 06:30:53;;;;;;;;;;;15.40;99.90;;;;;;5057613;28;19908;-81
2021/08/31 06:33:19;;;;;;;;;;;15.50;99.90;;;;;;5057343;28;19920;-75
2021/08/31 06:35:44;;;;;;;;;;;15.60;99.90;;;;;;5064817;28;19917;-75
2021/08/31 06:38:10;;;;;;;;;;;15.70;99.90;;;;;;5065604;28;19916;-82
2021/08/31 06:40:35;;;;;;;;;;;15.70;99.90;;;;;;5067311;28;19930;-78
2021/08/31 06:43:01;;;;;;;;;;;15.70;99.90;;;;;;5072834;28;20304;-76
2021/08/31 06:45:26;;;;;;;;;;;15.80;99.90;;;;;;5076210;28;19939;-83
2021/08/31 06:47:52;;;;;;;;;;;15.80;99.90;;;;;;5073052;28;19970;-75
2021/08/31 06:50:18;;;;;;;;;;;15.80;99.90;;;;;;5054318;28;19925;-80
2021/08/31 06:52:44;;;;;;;;;;;15.80;99.90;;;;;;5065639;28;19958;-80
2021/08/31 06:55:10;;;;;;;;;;;15.90;99.90;;;;;;5052225;28;20011;-74
2021/08/31 06:57:36;;;;;;;;;;;15.90;99.90;;;;;;5066262;28;20008;-79
2021/08/31 07:00:03;;;;;;;;;;;15.90;99.90;;;;;;5072881;28;19916;-84
2021/08/31 07:02:29;;;;;;;;;;;15.90;99.90;;;;;;5076708;28;19943;-81
2021/08/31 07:04:55;;;;;;;;;;;16.00;99.90;;;;;;5077005;28;19963;-75
2021/08/31 07:07:20;;;;;;;;;;;16.00;99.90;;;;;;5073441;28;19974;-80
2021/08/31 07:09:46;;;;;;;;;;;16.10;99.90;;;;;;5091464;28;20314;-80
2021/08/31 07:12:13;;;;;;;;;;;16.10;99.90;;;;;;5076076;28;19915;-75
2021/08/31 07:14:38;;;;;;;;;;;16.20;99.90;;;;;;5070019;28;19915;-80
2021/08/31 07:17:04;;;;;;;;;;;16.10;99.90;;;;;;5092247;28;19912;-82
2021/08/31 07:19:29;;;;;;;;;;;16.10;99.90;;;;;;5075329;28;19923;-81
2021/08/31 07:21:55;;;;;;;;;;;16.10;99.90;;;;;;5091904;28;19998;-78
2021/08/31 07:24:21;;;;;;;;;;;16.10;99.90;;;;;;5077149;28;20235;-76
2021/08/31 07:26:47;;;;;;;;;;;16.10;99.90;;;;;;5075459;28;19959;-75
2021/08/31 07:29:12;;;;;;;;;;;16.10;99.90;;;;;;5072796;28;20268;-82
2021/08/31 07:31:38;;;;;;;;;;;16.20;99.90;;;;;;5089926;28;19912;-80
2021/08/31 07:34:03;;;;;;;;;;;16.30;99.90;;;;;;5071402;28;19912;-78
2021/08/31 07:36:29;;;;;;;;;;;16.40;99.90;;;;;;5074109;28;19916;-80
2021/08/31 07:38:55;;;;;;;;;;;16.50;99.90;;;;;;5074587;28;20196;-78
2021/08/31 07:41:21;;;;;;;;;;;16.50;99.90;;;;;;5069511;28;19912;-79
2021/08/31 07:43:47;;;;;;;;;;;16.60;99.90;;;;;;5085206;28;20291;-82
2021/08/31 07:46:13;;;;;;;;;;;16.60;99.90;;;;;;5086387;28;19916;-81
2021/08/31 07:48:38;;;;;;;;;;;16.70;99.90;;;;;;5086505;28;20325;-82
2021/08/31 07:51:04;;;;;;;;;;;16.70;99.90;;;;;;5089375;28;19941;-78
2021/08/31 07:53:30;;;;;;;;;;;16.80;99.90;;;;;;5085826;28;20037;-77
2021/08/31 07:55:55;;;;;;;;;;;16.80;99.90;;;;;;5072164;28;19912;-82
2021/08/31 07:58:21;;;;;;;;;;;16.80;99.90;;;;;;5087881;28;20231;-82
2021/08/31 08:00:46;;;;;;;;;;;16.80;99.90;;;;;;5089111;28;19920;-83
2021/08/31 08:03:12;;;;;;;;;;;16.90;99.90;;;;;;5093049;28;20312;-82
2021/08/31 08:05:37;;;;;;;;;;;17.00;99.90;;;;;;5093534;28;20224;-78
2021/08/31 08:08:03;;;;;;;;;;;17.00;99.90;;;;;;5073833;28;19920;-79
2021/08/31 08:10:29;;;;;;;;;;;17.10;99.90;;;;;;5074533;28;19923;-82
2021/08/31 08:12:54;;;;;;;;;;;17.10;99.90;;;;;;5093979;28;19939;-81
2021/08/31 08:15:22;;;;;;;;;;;17.10;99.90;;;;;;5092706;28;20012;-80
2021/08/31 08:17:48;;;;;;;;;;;17.10;99.90;;;;;;5075741;28;19916;-76
2021/08/31 08:20:13;;;;;;;;;;;17.10;99.90;;;;;;5092711;28;19976;-82
2021/08/31 08:22:39;;;;;;;;;;;17.20;99.90;;;;;;5093626;28;19920;-80
2021/08/31 08:25:05;;;;;;;;;;;17.30;99.90;;;;;;5092588;28;20322;-77
2021/08/31 08:27:31;;;;;;;;;;;17.30;99.90;;;;;;5075750;28;19923;-82
2021/08/31 08:29:56;;;;;;;;;;;17.40;99.90;;;;;;5092370;28;20265;-84
2021/08/31 08:32:22;;;;;;;;;;;17.40;99.90;;;;;;5077816;28;19916;-76
2021/08/31 08:34:47;;;;;;;;;;;17.50;99.90;;;;;;5099218;28;19934;-79
2021/08/31 08:37:14;;;;;;;;;;;17.50;99.90;;;;;;5078760;28;19966;-79
2021/08/31 08:39:40;;;;;;;;;;;17.50;99.90;;;;;;5097216;28;19919;-80
2021/08/31 08:42:05;;;;;;;;;;;17.60;99.90;;;;;;5078569;28;19912;-82
2021/08/31 08:44:32;;;;;;;;;;;17.70;99.90;;;;;;5088124;28;19984;-78
2021/08/31 08:46:57;;;;;;;;;;;17.80;99.90;;;;;;5089184;28;19952;-77
2021/08/31 08:49:23;;;;;;;;;;;17.70;99.90;;;;;;5093247;28;20288;-82
2021/08/31 08:51:52;;;;;;;;;;;17.70;99.90;;;;;;5093596;28;19915;-81
2021/08/31 08:54:17;;;;;;;;;;;17.70;99.90;;;;;;5094277;28;19969;-78
2021/08/31 08:56:43;;;;;;;;;;;17.70;99.90;;;;;;5092433;28;19912;-86
2021/08/31 08:59:09;;;;;;;;;;;17.70;99.90;;;;;;5076188;28;19985;-76
2021/08/31 09:01:41;;;;;;;;;;;17.70;99.90;;;;;;5058265;28;19931;-79
2021/08/31 09:04:07;;;;;;;;;;;17.60;99.90;;;;;;5075571;28;19935;-77
2021/08/31 09:06:32;;;;;;;;;;;17.60;99.90;;;;;;5071890;28;20297;-84
2021/08/31 09:08:59;;;;;;;;;;;17.50;99.90;;;;;;5077958;28;19927;-77
2021/08/31 09:11:27;;;;;;;;;;;17.50;99.90;;;;;;5077691;28;19916;-86
2021/08/31 09:14:12;;;;;;;;;;;17.60;99.90;;;;;;5077564;28;19912;-78
2021/08/31 09:16:38;;;;;;;;;;;17.60;99.90;;;;;;5058952;28;19960;-76
2021/08/31 09:19:03;;;;;;;;;;;17.60;99.90;;;;;;5059012;28;19943;-81
2021/08/31 09:21:29;;;;;;;;;;;17.60;99.90;;;;;;5054972;28;20363;-77
2021/08/31 09:23:56;;;;;;;;;;;17.60;99.90;;;;;;5058407;28;19916;-78
2021/08/31 09:26:36;;;;;;;;;;;17.70;99.90;;;;;;5059028;28;20223;-82
2021/08/31 09:29:10;;;;;;;;;;;17.70;99.90;;;;;;5076442;28;20004;-79
2021/08/31 09:31:44;;;;;;;;;;;17.80;99.90;;;;;;5047067;28;19916;-79
2021/08/31 09:34:30;;;;;;;;;;;17.80;99.90;;;;;;5065317;28;19961;-80
2021/08/31 09:36:56;;;;;;;;;;;17.70;99.90;;;;;;5055263;28;19912;-85
2021/08/31 09:39:27;;;;;;;;;;;17.70;99.90;;;;;;5073010;28;19909;-79
2021/08/31 09:41:53;;;;;;;;;;;17.70;99.90;;;;;;5061659;28;20066;-80
2021/08/31 09:44:19;;;;;;;;;;;17.70;99.90;;;;;;5064862;28;20042;-78
2021/08/31 09:46:46;;;;;;;;;;;17.80;99.90;;;;;;5072143;28;19965;-81
2021/08/31 09:49:19;;;;;;;;;;;17.80;99.90;;;;;;5053214;28;20007;-79
2021/08/31 09:52:00;;;;;;;;;;;17.90;99.90;;;;;;5049414;28;20011;-80
2021/08/31 09:54:26;;;;;;;;;;;18.00;99.90;;;;;;5049620;28;19916;-77
2021/08/31 09:56:51;;;;;;;;;;;18.20;99.90;;;;;;5065713;28;19917;-76
2021/08/31 09:59:18;;;;;;;;;;;18.40;99.90;;;;;;5068161;28;20001;-76
2021/08/31 10:01:43;;;;;;;;;;;18.50;99.90;;;;;;5047028;28;19920;-78
2021/08/31 10:04:09;;;;;;;;;;;18.60;99.90;;;;;;5049734;28;19916;-76
2021/08/31 10:06:34;;;;;;;;;;;18.80;99.90;;;;;;5066008;28;20606;-78
2021/08/31 10:09:00;;;;;;;;;;;18.90;99.90;;;;;;5050195;28;19924;-79
2021/08/31 10:11:27;;;;;;;;;;;18.90;99.90;;;;;;5066732;28;20532;-76
2021/08/31 10:13:53;;;;;;;;;;;18.90;99.90;;;;;;5065876;28;19920;-78
2021/08/31 10:16:19;;;;;;;;;;;18.80;99.90;;;;;;5049383;28;19916;-80
2021/08/31 10:18:45;;;;;;;;;;;18.70;99.90;;;;;;5069900;28;20039;-81
2021/08/31 10:21:11;;;;;;;;;;;18.80;99.90;;;;;;5067535;28;20070;-81
2021/08/31 10:23:38;;;;;;;;;;;18.70;99.90;;;;;;5052136;28;19916;-76
2021/08/31 10:26:22;;;;;;;;;;;18.60;99.90;;;;;;5055382;28;20003;-83
2021/08/31 10:28:48;;;;;;;;;;;18.40;99.90;;;;;;5046751;28;20310;-80
2021/08/31 10:31:29;;;;;;;;;;;18.40;99.90;;;;;;5073667;28;19923;-83
2021/08/31 10:33:55;;;;;;;;;;;18.30;99.90;;;;;;5056043;28;19916;-79
2021/08/31 10:36:34;;;;;;;;;;;18.30;99.90;;;;;;5057483;28;19915;-76
2021/08/31 10:38:59;;;;;;;;;;;18.30;99.90;;;;;;5072951;28;20486;-77
2021/08/31 10:41:44;;;;;;;;;;;18.20;99.90;;;;;;5054351;28;20046;-75
2021/08/31 10:44:11;;;;;;;;;;;18.20;99.90;;;;;;5073275;28;19931;-78
2021/08/31 10:46:55;;;;;;;;;;;18.20;99.90;;;;;;5053611;28;19923;-78
2021/08/31 10:49:20;;;;;;;;;;;18.20;99.90;;;;;;5048450;28;20299;-82
2021/08/31 10:52:05;;;;;;;;;;;18.30;99.90;;;;;;5047481;28;19923;-80
2021/08/31 10:54:47;;;;;;;;;;;18.40;99.90;;;;;;5048377;28;19912;-81
2021/08/31 10:57:43;;;;;;;;;;;18.40;99.90;;;;;;5060454;28;19917;-76
2021/08/31 11:00:11;;;;;;;;;;;18.50;99.90;;;;;;5004805;28;19917;-78
2021/08/31 11:02:45;;;;;;;;;;;18.30;99.90;;;;;;5020415;28;19940;-79
2021/08/31 11:05:20;;;;;;;;;;;18.20;99.90;;;;;;4991888;28;19924;-81
2021/08/31 11:07:46;;;;;;;;;;;18.20;99.90;;;;;;5011405;28;19929;-75
2021/08/31 11:10:19;;;;;;;;;;;18.20;99.90;;;;;;5012435;28;19948;-79
2021/08/31 11:12:45;;;;;;;;;;;18.20;99.90;;;;;;4998626;28;19971;-77
2021/08/31 11:15:17;;;;;;;;;;;18.20;99.90;;;;;;5015543;28;20286;-79
2021/08/31 11:17:43;;;;;;;;;;;18.20;99.90;;;;;;5015222;28;19917;-80
2021/08/31 11:20:18;;;;;;;;;;;18.30;99.90;;;;;;4997139;28;19910;-77
2021/08/31 11:22:50;;;;;;;;;;;18.40;99.90;;;;;;5004787;28;19914;-77
2021/08/31 11:25:24;;;;;;;;;;;18.50;99.90;;;;;;4993723;28;20229;-80
2021/08/31 11:27:57;;;;;;;;;;;18.50;99.90;;;;;;5008810;28;20004;-77
2021/08/31 11:30:23;;;;;;;;;;;18.50;99.90;;;;;;4992220;28;19914;-77
2021/08/31 11:32:48;;;;;;;;;;;18.50;99.90;;;;;;4998636;28;19920;-77
2021/08/31 11:35:14;;;;;;;;;;;18.40;99.90;;;;;;5004788;28;19917;-82
2021/08/31 11:37:47;;;;;;;;;;;18.40;99.90;;;;;;5088063;28;19920;-78
2021/08/31 11:40:12;;;;;;;;;;;18.30;99.90;;;;;;5091926;28;19920;-80
2021/08/31 11:42:51;;;;;;;;;;;18.20;99.90;;;;;;5085011;28;19916;-78
2021/08/31 11:45:17;;;;;;;;;;;18.30;99.90;;;;;;5076294;28;19966;-77
2021/08/31 11:47:43;;;;;;;;;;;18.20;99.90;;;;;;5065965;28;19927;-78
2021/08/31 11:50:08;;;;;;;;;;;18.10;99.90;;;;;;5065290;28;19923;-81
2021/08/31 11:52:34;;;;;;;;;;;18.10;99.90;;;;;;5083285;28;19916;-80
2021/08/31 11:55:00;;;;;;;;;;;18.10;99.90;;;;;;5084434;28;20362;-74
2021/08/31 11:57:29;;;;;;;;;;;18.20;99.90;;;;;;5084091;28;19951;-77
2021/08/31 11:59:55;;;;;;;;;;;18.40;99.90;;;;;;5085991;28;19919;-76
2021/08/31 12:02:27;;;;;;;;;;;18.40;99.90;;;;;;5082771;28;20231;-77
2021/08/31 12:04:53;;;;;;;;;;;18.40;99.90;;;;;;5074459;28;20271;-77
2021/08/31 12:07:20;;;;;;;;;;;18.40;99.90;;;;;;5088224;28;19962;-77
2021/08/31 12:09:46;;;;;;;;;;;18.40;99.90;;;;;;5094191;28;19919;-79
2021/08/31 12:12:12;;;;;;;;;;;18.40;99.90;;;;;;5076205;28;19912;-81
2021/08/31 12:14:38;;;;;;;;;;;18.40;99.90;;;;;;5075035;28;19920;-74
2021/08/31 12:17:04;;;;;;;;;;;18.40;99.90;;;;;;5093741;28;19916;-82
2021/08/31 12:19:30;;;;;;;;;;;18.40;99.90;;;;;;5076615;28;20282;-74
2021/08/31 12:22:06;;;;;;;;;;;18.40;99.90;;;;;;5093981;28;20304;-77
2021/08/31 12:24:32;;;;;;;;;;;18.40;99.90;;;;;;5068776;28;19912;-77
2021/08/31 12:27:08;;;;;;;;;;;18.30;99.90;;;;;;5072090;28;20192;-76
2021/08/31 12:29:46;;;;;;;;;;;18.30;99.90;;;;;;5076724;28;20241;-76
2021/08/31 12:32:11;;;;;;;;;;;18.20;99.90;;;;;;5075702;28;19916;-75
2021/08/31 12:34:37;;;;;;;;;;;18.20;99.90;;;;;;5076298;28;19926;-76
2021/08/31 12:37:22;;;;;;;;;;;18.30;99.90;;;;;;5094352;28;20241;-77
2021/08/31 12:39:48;;;;;;;;;;;18.30;99.90;;;;;;5084214;28;20234;-75
2021/08/31 12:42:17;;;;;;;;;;;18.30;99.90;;;;;;5076171;28;19908;-76
2021/08/31 12:44:48;;;;;;;;;;;18.30;99.90;;;;;;5082307;28;19991;-75
2021/08/31 12:47:16;;;;;;;;;;;18.40;99.90;;;;;;5093494;28;19953;-77
2021/08/31 12:49:41;;;;;;;;;;;18.40;99.90;;;;;;5076111;28;20214;-76
2021/08/31 12:52:13;;;;;;;;;;;18.40;99.90;;;;;;5093973;28;19913;-75
2021/08/31 12:54:39;;;;;;;;;;;18.40;99.90;;;;;;5075877;28;19991;-75
2021/08/31 12:57:07;;;;;;;;;;;18.50;99.90;;;;;;5076167;28;20007;-80
2021/08/31 12:59:35;;;;;;;;;;;18.50;99.90;;;;;;5093642;28;19996;-80
2021/08/31 13:02:04;;;;;;;;;;;18.40;99.90;;;;;;5053953;28;19924;-76
2021/08/31 13:04:31;;;;;;;;;;;18.40;99.90;;;;;;5073513;28;19916;-78
2021/08/31 13:07:09;;;;;;;;;;;18.30;99.90;;;;;;5072563;28;19909;-75
2021/08/31 13:09:36;;;;;;;;;;;18.30;99.90;;;;;;5061528;28;19929;-77
2021/08/31 13:12:03;;;;;;;;;;;18.30;99.90;;;;;;5066198;28;19916;-80
2021/08/31 13:14:29;;;;;;;;;;;18.20;99.90;;;;;;5068179;28;20265;-76
2021/08/31 13:16:56;;;;;;;;;;;18.10;99.90;;;;;;5050275;28;19920;-76
2021/08/31 13:19:22;;;;;;;;;;;18.00;99.90;;;;;;5052859;28;19916;-80
2021/08/31 13:21:48;;;;;;;;;;;18.00;99.90;;;;;;5073330;28;19966;-76
2021/08/31 13:24:14;;;;;;;;;;;17.90;99.90;;;;;;5070736;28;20269;-78
2021/08/31 13:26:40;;;;;;;;;;;17.90;99.90;;;;;;5054443;28;19923;-78
2021/08/31 13:29:06;;;;;;;;;;;17.90;99.90;;;;;;5070506;28;20323;-76
2021/08/31 13:31:32;;;;;;;;;;;17.80;99.90;;;;;;5073877;28;19916;-76
2021/08/31 13:33:58;;;;;;;;;;;17.80;99.90;;;;;;5069345;28;20472;-76
2021/08/31 13:36:24;;;;;;;;;;;17.80;99.90;;;;;;5071414;28;19917;-76
2021/08/31 13:38:49;;;;;;;;;;;17.80;99.90;;;;;;5052547;28;19986;-80
2021/08/31 13:41:15;;;;;;;;;;;17.80;99.90;;;;;;5069809;28;19978;-75
2021/08/31 13:43:41;;;;;;;;;;;17.70;99.90;;;;;;5069884;28;20334;-80
2021/08/31 13:46:07;;;;;;;;;;;17.80;99.90;;;;;;5073694;28;19921;-77
2021/08/31 13:48:33;;;;;;;;;;;17.80;99.90;;;;;;5065413;28;19944;-75
2021/08/31 13:50:58;;;;;;;;;;;17.80;99.90;;;;;;5048834;28;19963;-78
2021/08/31 13:53:24;;;;;;;;;;;17.80;99.90;;;;;;5071414;28;19995;-76
2021/08/31 13:55:52;;;;;;;;;;;17.80;99.90;;;;;;5071747;28;20226;-75
2021/08/31 13:58:19;;;;;;;;;;;17.70;99.90;;;;;;5055529;28;19946;-80
2021/08/31 14:00:45;;;;;;;;;;;17.80;99.90;;;;;;5082058;28;19920;-76
2021/08/31 14:03:11;;;;;;;;;;;17.80;99.90;;;;;;5075650;28;19919;-79
2021/08/31 14:05:37;;;;;;;;;;;17.70;99.90;;;;;;5076795;28;19912;-78
2021/08/31 14:08:06;;;;;;;;;;;17.70;99.90;;;;;;5088280;28;19972;-75
2021/08/31 14:10:31;;;;;;;;;;;17.70;99.90;;;;;;5097907;28;19918;-79
2021/08/31 14:12:58;;;;;;;;;;;17.70;99.90;;;;;;5082745;28;20221;-75
2021/08/31 14:15:25;;;;;;;;;;;17.70;99.90;;;;;;5090891;28;20307;-74